sensor_id;sensor_type;location;lat;lon;timestamp;temperature;humidity
23813;DHT22;12087;45.190;5.688;2022-08-24T00:02:35;22.70;96.40
23813;DHT22;12087;45.190;5.688;2022-08-24T00:07:58;22.60;96.00
23813;DHT22;12087;45.190;5.688;2022-08-24T00:13:20;22.60;96.00
23813;DHT22;12087;45.190;5.688;2022-08-24T00:18:44;22.60;96.20
23813;DHT22;12087;45.190;5.688;2022-08-24T00:24:06;22.60;96.10
23813;DHT22;12087;45.190;5.688;2022-08-24T00:29:29;22.60;96.20
23813;DHT22;12087;45.190;5.688;2022-08-24T00:34:53;22.60;96.20
23813;DHT22;12087;45.190;5.688;2022-08-24T00:40:17;22.60;96.40
23813;DHT22;12087;45.190;5.688;2022-08-24T00:45:45;22.60;96.30
23813;DHT22;12087;45.190;5.688;2022-08-24T00:51:15;22.60;96.30
23813;DHT22;12087;45.190;5.688;2022-08-24T00:56:50;22.60;96.40
23813;DHT22;12087;45.190;5.688;2022-08-24T01:02:17;22.50;97.30
23813;DHT22;12087;45.190;5.688;2022-08-24T01:07:43;22.50;96.80
23813;DHT22;12087;45.190;5.688;2022-08-24T01:13:10;22.50;97.10
23813;DHT22;12087;45.190;5.688;2022-08-24T01:18:33;22.50;97.30
23813;DHT22;12087;45.190;5.688;2022-08-24T01:24:13;22.50;96.90
23813;DHT22;12087;45.190;5.688;2022-08-24T01:29:36;22.50;97.00
23813;DHT22;12087;45.190;5.688;2022-08-24T01:35:00;22.40;97.10
23813;DHT22;12087;45.190;5.688;2022-08-24T01:40:27;22.40;97.50
23813;DHT22;12087;45.190;5.688;2022-08-24T01:45:52;22.30;97.40
23813;DHT22;12087;45.190;5.688;2022-08-24T01:51:14;22.30;96.60
23813;DHT22;12087;45.190;5.688;2022-08-24T01:56:38;22.30;97.20
23813;DHT22;12087;45.190;5.688;2022-08-24T02:02:03;22.20;97.80
23813;DHT22;12087;45.190;5.688;2022-08-24T02:07:26;22.20;98.10
23813;DHT22;12087;45.190;5.688;2022-08-24T02:12:51;22.10;98.00
23813;DHT22;12087;45.190;5.688;2022-08-24T02:18:18;22.10;98.40
23813;DHT22;12087;45.190;5.688;2022-08-24T02:23:41;22.00;98.40
23813;DHT22;12087;45.190;5.688;2022-08-24T02:29:05;22.00;98.70
23813;DHT22;12087;45.190;5.688;2022-08-24T02:34:27;21.90;99.00
23813;DHT22;12087;45.190;5.688;2022-08-24T02:39:49;21.80;99.10
23813;DHT22;12087;45.190;5.688;2022-08-24T02:45:13;21.80;99.10
23813;DHT22;12087;45.190;5.688;2022-08-24T02:50:37;21.80;99.20
23813;DHT22;12087;45.190;5.688;2022-08-24T02:56:00;21.70;99.00
23813;DHT22;12087;45.190;5.688;2022-08-24T03:01:24;21.70;98.70
23813;DHT22;12087;45.190;5.688;2022-08-24T03:06:46;21.70;98.80
23813;DHT22;12087;45.190;5.688;2022-08-24T03:12:08;21.60;98.90
23813;DHT22;12087;45.190;5.688;2022-08-24T03:17:32;21.60;99.40
23813;DHT22;12087;45.190;5.688;2022-08-24T03:22:54;21.60;99.70
23813;DHT22;12087;45.190;5.688;2022-08-24T03:28:17;21.60;99.90
23813;DHT22;12087;45.190;5.688;2022-08-24T03:33:40;21.50;99.90
23813;DHT22;12087;45.190;5.688;2022-08-24T03:39:03;21.50;99.90
23813;DHT22;12087;45.190;5.688;2022-08-24T03:44:25;21.40;99.90
23813;DHT22;12087;45.190;5.688;2022-08-24T03:49:49;21.30;99.90
23813;DHT22;12087;45.190;5.688;2022-08-24T03:55:11;21.20;99.90
23813;DHT22;12087;45.190;5.688;2022-08-24T04:00:34;21.20;99.90
23813;DHT22;12087;45.190;5.688;2022-08-24T04:05:57;21.20;99.90
23813;DHT22;12087;45.190;5.688;2022-08-24T04:11:23;21.20;99.90
23813;DHT22;12087;45.190;5.688;2022-08-24T04:16:45;21.20;99.90
23813;DHT22;12087;45.190;5.688;2022-08-24T04:22:09;21.10;99.90
23813;DHT22;12087;45.190;5.688;2022-08-24T04:27:31;21.10;99.90
23813;DHT22;12087;45.190;5.688;2022-08-24T04:32:53;21.10;99.90
23813;DHT22;12087;45.190;5.688;2022-08-24T04:38:18;21.10;99.90
23813;DHT22;12087;45.190;5.688;2022-08-24T04:43:41;21.10;99.90
23813;DHT22;12087;45.190;5.688;2022-08-24T04:49:04;20.90;99.90
23813;DHT22;12087;45.190;5.688;2022-08-24T04:54:29;20.90;99.90
23813;DHT22;12087;45.190;5.688;2022-08-24T04:59:54;20.90;99.90
23813;DHT22;12087;45.190;5.688;2022-08-24T05:05:17;20.90;99.90
23813;DHT22;12087;45.190;5.688;2022-08-24T05:10:43;20.90;99.90
23813;DHT22;12087;45.190;5.688;2022-08-24T05:16:07;20.90;99.90
23813;DHT22;12087;45.190;5.688;2022-08-24T05:21:29;20.80;99.90
23813;DHT22;12087;45.190;5.688;2022-08-24T05:26:53;20.80;99.90
23813;DHT22;12087;45.190;5.688;2022-08-24T05:32:16;20.80;99.90
23813;DHT22;12087;45.190;5.688;2022-08-24T05:37:39;20.70;99.90
23813;DHT22;12087;45.190;5.688;2022-08-24T05:43:04;20.70;99.90
23813;DHT22;12087;45.190;5.688;2022-08-24T05:48:26;20.70;99.90
23813;DHT22;12087;45.190;5.688;2022-08-24T05:53:49;20.70;99.90
23813;DHT22;12087;45.190;5.688;2022-08-24T05:59:13;20.70;99.90
23813;DHT22;12087;45.190;5.688;2022-08-24T06:04:37;20.70;99.90
23813;DHT22;12087;45.190;5.688;2022-08-24T06:10:00;20.70;99.90
23813;DHT22;12087;45.190;5.688;2022-08-24T06:15:24;20.70;99.90
23813;DHT22;12087;45.190;5.688;2022-08-24T06:20:46;20.80;99.90
23813;DHT22;12087;45.190;5.688;2022-08-24T06:26:08;20.80;99.90
23813;DHT22;12087;45.190;5.688;2022-08-24T06:31:49;20.90;99.90
23813;DHT22;12087;45.190;5.688;2022-08-24T06:37:12;21.00;99.90
23813;DHT22;12087;45.190;5.688;2022-08-24T06:42:34;21.00;99.90
23813;DHT22;12087;45.190;5.688;2022-08-24T06:47:57;21.10;99.90
23813;DHT22;12087;45.190;5.688;2022-08-24T06:53:20;21.20;99.90
23813;DHT22;12087;45.190;5.688;2022-08-24T06:58:43;21.30;99.90
23813;DHT22;12087;45.190;5.688;2022-08-24T07:04:06;21.30;99.90
23813;DHT22;12087;45.190;5.688;2022-08-24T07:09:30;21.40;99.90
23813;DHT22;12087;45.190;5.688;2022-08-24T07:14:53;21.40;99.90
23813;DHT22;12087;45.190;5.688;2022-08-24T07:20:16;21.50;99.90
23813;DHT22;12087;45.190;5.688;2022-08-24T07:25:39;21.50;99.90
23813;DHT22;12087;45.190;5.688;2022-08-24T07:31:02;21.60;99.90
23813;DHT22;12087;45.190;5.688;2022-08-24T07:36:26;21.80;99.90
23813;DHT22;12087;45.190;5.688;2022-08-24T07:41:48;21.90;99.90
23813;DHT22;12087;45.190;5.688;2022-08-24T07:47:10;22.00;99.60
23813;DHT22;12087;45.190;5.688;2022-08-24T07:52:34;22.20;99.00
23813;DHT22;12087;45.190;5.688;2022-08-24T07:58:00;22.30;98.80
23813;DHT22;12087;45.190;5.688;2022-08-24T08:03:22;22.50;98.80
23813;DHT22;12087;45.190;5.688;2022-08-24T08:08:53;22.70;99.00
23813;DHT22;12087;45.190;5.688;2022-08-24T08:14:15;23.10;97.90
23813;DHT22;12087;45.190;5.688;2022-08-24T08:19:38;23.40;96.80
23813;DHT22;12087;45.190;5.688;2022-08-24T08:25:05;23.60;96.60
23813;DHT22;12087;45.190;5.688;2022-08-24T08:30:28;23.90;96.20
23813;DHT22;12087;45.190;5.688;2022-08-24T08:35:51;24.10;95.50
23813;DHT22;12087;45.190;5.688;2022-08-24T08:41:56;24.20;94.60
23813;DHT22;12087;45.190;5.688;2022-08-24T08:53:40;24.40;94.80
23813;DHT22;12087;45.190;5.688;2022-08-24T08:59:16;24.60;94.20
23813;DHT22;12087;45.190;5.688;2022-08-24T09:11:01;24.90;93.40
23813;DHT22;12087;45.190;5.688;2022-08-24T09:16:33;24.90;92.50
23813;DHT22;12087;45.190;5.688;2022-08-24T09:22:09;25.00;93.40
23813;DHT22;12087;45.190;5.688;2022-08-24T09:28:03;25.10;91.60
23813;DHT22;12087;45.190;5.688;2022-08-24T09:33:49;25.20;92.20
23813;DHT22;12087;45.190;5.688;2022-08-24T09:59:16;25.90;88.00
23813;DHT22;12087;45.190;5.688;2022-08-24T10:04:54;26.20;88.10
23813;DHT22;12087;45.190;5.688;2022-08-24T10:10:31;26.40;89.80
23813;DHT22;12087;45.190;5.688;2022-08-24T10:16:12;26.60;88.00
23813;DHT22;12087;45.190;5.688;2022-08-24T10:21:45;26.80;90.00
23813;DHT22;12087;45.190;5.688;2022-08-24T10:27:20;27.10;88.40
23813;DHT22;12087;45.190;5.688;2022-08-24T10:32:53;27.30;84.60
23813;DHT22;12087;45.190;5.688;2022-08-24T10:38:24;27.50;84.80
23813;DHT22;12087;45.190;5.688;2022-08-24T10:44:21;27.80;82.10
23813;DHT22;12087;45.190;5.688;2022-08-24T10:50:12;28.10;77.90
23813;DHT22;12087;45.190;5.688;2022-08-24T10:55:37;28.40;80.00
23813;DHT22;12087;45.190;5.688;2022-08-24T11:01:13;28.50;75.00
23813;DHT22;12087;45.190;5.688;2022-08-24T11:06:40;28.80;76.80
23813;DHT22;12087;45.190;5.688;2022-08-24T11:12:16;29.20;75.80
23813;DHT22;12087;45.190;5.688;2022-08-24T11:17:53;29.40;76.10
23813;DHT22;12087;45.190;5.688;2022-08-24T11:23:19;29.70;73.40
23813;DHT22;12087;45.190;5.688;2022-08-24T11:28:46;29.70;71.50
23813;DHT22;12087;45.190;5.688;2022-08-24T11:34:14;30.00;72.30
23813;DHT22;12087;45.190;5.688;2022-08-24T11:39:39;30.40;68.80
23813;DHT22;12087;45.190;5.688;2022-08-24T11:45:09;30.60;68.00
23813;DHT22;12087;45.190;5.688;2022-08-24T11:50:36;30.80;70.80
23813;DHT22;12087;45.190;5.688;2022-08-24T11:56:11;30.90;66.80
23813;DHT22;12087;45.190;5.688;2022-08-24T12:01:42;31.20;66.00
23813;DHT22;12087;45.190;5.688;2022-08-24T12:07:12;31.50;65.90
23813;DHT22;12087;45.190;5.688;2022-08-24T12:12:42;31.30;66.60
23813;DHT22;12087;45.190;5.688;2022-08-24T12:18:23;31.30;68.10
23813;DHT22;12087;45.190;5.688;2022-08-24T12:23:50;31.50;67.10
23813;DHT22;12087;45.190;5.688;2022-08-24T12:29:19;31.50;66.40
23813;DHT22;12087;45.190;5.688;2022-08-24T12:34:52;31.70;63.70
23813;DHT22;12087;45.190;5.688;2022-08-24T12:40:23;31.80;61.40
23813;DHT22;12087;45.190;5.688;2022-08-24T12:47:28;32.00;61.10
23813;DHT22;12087;45.190;5.688;2022-08-24T12:59:12;32.80;57.80
23813;DHT22;12087;45.190;5.688;2022-08-24T13:04:41;32.90;56.20
23813;DHT22;12087;45.190;5.688;2022-08-24T13:10:09;33.00;56.50
23813;DHT22;12087;45.190;5.688;2022-08-24T13:15:58;33.30;58.60
23813;DHT22;12087;45.190;5.688;2022-08-24T13:21:51;33.50;56.00
23813;DHT22;12087;45.190;5.688;2022-08-24T13:33:36;33.80;56.40
23813;DHT22;12087;45.190;5.688;2022-08-24T13:39:11;33.90;55.20
23813;DHT22;12087;45.190;5.688;2022-08-24T13:44:55;33.90;55.60
23813;DHT22;12087;45.190;5.688;2022-08-24T13:50:32;33.90;55.00
23813;DHT22;12087;45.190;5.688;2022-08-24T13:56:20;33.90;55.70
23813;DHT22;12087;45.190;5.688;2022-08-24T14:02:03;33.90;56.20
23813;DHT22;12087;45.190;5.688;2022-08-24T14:07:29;33.80;55.70
23813;DHT22;12087;45.190;5.688;2022-08-24T14:13:02;33.90;55.50
23813;DHT22;12087;45.190;5.688;2022-08-24T14:18:30;33.60;54.90
23813;DHT22;12087;45.190;5.688;2022-08-24T14:23:59;33.50;55.80
23813;DHT22;12087;45.190;5.688;2022-08-24T14:29:46;33.10;55.20
23813;DHT22;12087;45.190;5.688;2022-08-24T14:35:27;32.70;56.90
23813;DHT22;12087;45.190;5.688;2022-08-24T14:41:02;32.40;57.30
23813;DHT22;12087;45.190;5.688;2022-08-24T14:46:35;32.40;58.00
23813;DHT22;12087;45.190;5.688;2022-08-24T14:52:06;32.50;57.40
23813;DHT22;12087;45.190;5.688;2022-08-24T14:57:56;32.50;58.60
23813;DHT22;12087;45.190;5.688;2022-08-24T15:03:32;32.60;56.30
23813;DHT22;12087;45.190;5.688;2022-08-24T15:09:08;32.50;56.70
23813;DHT22;12087;45.190;5.688;2022-08-24T15:14:40;32.50;56.40
23813;DHT22;12087;45.190;5.688;2022-08-24T15:20:08;32.40;57.30
23813;DHT22;12087;45.190;5.688;2022-08-24T15:25:47;32.30;58.10
23813;DHT22;12087;45.190;5.688;2022-08-24T15:31:18;32.10;56.70
23813;DHT22;12087;45.190;5.688;2022-08-24T15:36:43;32.00;56.50
23813;DHT22;12087;45.190;5.688;2022-08-24T15:42:19;31.90;55.50
23813;DHT22;12087;45.190;5.688;2022-08-24T15:47:43;31.70;57.90
23813;DHT22;12087;45.190;5.688;2022-08-24T15:53:27;31.70;57.00
23813;DHT22;12087;45.190;5.688;2022-08-24T15:58:50;31.50;57.80
23813;DHT22;12087;45.190;5.688;2022-08-24T16:04:35;31.40;58.10
23813;DHT22;12087;45.190;5.688;2022-08-24T16:10:09;31.30;56.50
23813;DHT22;12087;45.190;5.688;2022-08-24T16:15:31;31.20;57.10
23813;DHT22;12087;45.190;5.688;2022-08-24T16:21:23;31.10;59.00
23813;DHT22;12087;45.190;5.688;2022-08-24T16:27:09;31.00;58.80
23813;DHT22;12087;45.190;5.688;2022-08-24T16:32:51;30.90;58.70
23813;DHT22;12087;45.190;5.688;2022-08-24T16:38:14;30.80;59.00
23813;DHT22;12087;45.190;5.688;2022-08-24T16:43:40;30.60;57.80
23813;DHT22;12087;45.190;5.688;2022-08-24T16:49:03;30.50;59.80
23813;DHT22;12087;45.190;5.688;2022-08-24T16:54:25;30.40;59.80
23813;DHT22;12087;45.190;5.688;2022-08-24T16:59:51;30.30;60.00
23813;DHT22;12087;45.190;5.688;2022-08-24T17:05:14;30.20;58.90
23813;DHT22;12087;45.190;5.688;2022-08-24T17:10:37;30.00;61.10
23813;DHT22;12087;45.190;5.688;2022-08-24T17:16:05;29.80;60.80
23813;DHT22;12087;45.190;5.688;2022-08-24T17:21:29;29.70;63.30
23813;DHT22;12087;45.190;5.688;2022-08-24T17:33:04;29.40;64.50
23813;DHT22;12087;45.190;5.688;2022-08-24T17:38:55;29.30;64.20
23813;DHT22;12087;45.190;5.688;2022-08-24T17:45:02;29.10;66.20
23813;DHT22;12087;45.190;5.688;2022-08-24T18:03:20;28.80;67.60
23813;DHT22;12087;45.190;5.688;2022-08-24T18:08:45;28.70;69.80
23813;DHT22;12087;45.190;5.688;2022-08-24T18:14:07;28.50;68.60
23813;DHT22;12087;45.190;5.688;2022-08-24T18:19:30;28.40;68.10
23813;DHT22;12087;45.190;5.688;2022-08-24T18:24:59;28.30;68.70
23813;DHT22;12087;45.190;5.688;2022-08-24T18:30:25;28.10;70.60
23813;DHT22;12087;45.190;5.688;2022-08-24T18:35:47;28.00;72.10
23813;DHT22;12087;45.190;5.688;2022-08-24T18:41:11;27.90;72.80
23813;DHT22;12087;45.190;5.688;2022-08-24T18:46:34;27.70;74.90
23813;DHT22;12087;45.190;5.688;2022-08-24T18:51:57;27.60;74.50
23813;DHT22;12087;45.190;5.688;2022-08-24T18:57:24;27.60;73.00
23813;DHT22;12087;45.190;5.688;2022-08-24T19:02:48;27.50;70.40
23813;DHT22;12087;45.190;5.688;2022-08-24T19:08:11;27.40;71.90
23813;DHT22;12087;45.190;5.688;2022-08-24T19:13:35;27.10;71.20
23813;DHT22;12087;45.190;5.688;2022-08-24T19:18:59;27.10;72.10
23813;DHT22;12087;45.190;5.688;2022-08-24T19:24:24;26.90;72.40
23813;DHT22;12087;45.190;5.688;2022-08-24T19:29:48;26.90;72.20
23813;DHT22;12087;45.190;5.688;2022-08-24T19:35:11;26.90;71.20
23813;DHT22;12087;45.190;5.688;2022-08-24T19:40:35;26.80;73.20
23813;DHT22;12087;45.190;5.688;2022-08-24T19:46:00;26.60;74.90
23813;DHT22;12087;45.190;5.688;2022-08-24T19:51:27;26.60;74.10
23813;DHT22;12087;45.190;5.688;2022-08-24T19:56:51;26.50;74.80
23813;DHT22;12087;45.190;5.688;2022-08-24T20:02:15;26.40;76.90
23813;DHT22;12087;45.190;5.688;2022-08-24T20:07:51;26.30;77.30
23813;DHT22;12087;45.190;5.688;2022-08-24T20:13:22;26.20;77.80
23813;DHT22;12087;45.190;5.688;2022-08-24T20:18:48;26.10;78.20
23813;DHT22;12087;45.190;5.688;2022-08-24T20:24:11;26.00;78.50
23813;DHT22;12087;45.190;5.688;2022-08-24T20:29:35;26.00;79.10
23813;DHT22;12087;45.190;5.688;2022-08-24T20:35:00;25.80;78.60
23813;DHT22;12087;45.190;5.688;2022-08-24T20:40:27;25.70;80.80
23813;DHT22;12087;45.190;5.688;2022-08-24T20:45:52;25.70;77.30
23813;DHT22;12087;45.190;5.688;2022-08-24T20:51:21;25.50;79.80
23813;DHT22;12087;45.190;5.688;2022-08-24T20:56:48;25.40;80.40
23813;DHT22;12087;45.190;5.688;2022-08-24T21:02:11;25.30;81.00
23813;DHT22;12087;45.190;5.688;2022-08-24T21:07:36;25.20;82.70
23813;DHT22;12087;45.190;5.688;2022-08-24T21:13:05;25.10;83.50
23813;DHT22;12087;45.190;5.688;2022-08-24T21:18:28;25.00;83.20
23813;DHT22;12087;45.190;5.688;2022-08-24T21:23:52;24.90;83.60
23813;DHT22;12087;45.190;5.688;2022-08-24T21:29:14;24.80;83.00
23813;DHT22;12087;45.190;5.688;2022-08-24T21:34:37;24.70;83.90
23813;DHT22;12087;45.190;5.688;2022-08-24T21:40:39;24.70;85.20
23813;DHT22;12087;45.190;5.688;2022-08-24T21:46:28;24.50;86.40
23813;DHT22;12087;45.190;5.688;2022-08-24T21:51:56;24.50;85.60
23813;DHT22;12087;45.190;5.688;2022-08-24T21:57:52;24.40;87.30
23813;DHT22;12087;45.190;5.688;2022-08-24T22:03:17;24.20;87.70
23813;DHT22;12087;45.190;5.688;2022-08-24T22:08:41;24.20;87.20
23813;DHT22;12087;45.190;5.688;2022-08-24T22:14:22;24.10;87.80
23813;DHT22;12087;45.190;5.688;2022-08-24T22:22:56;24.00;88.80
23813;DHT22;12087;45.190;5.688;2022-08-24T22:32:54;23.90;90.60
23813;DHT22;12087;45.190;5.688;2022-08-24T22:38:18;23.80;90.80
23813;DHT22;12087;45.190;5.688;2022-08-24T23:54:51;23.10;94.10
